الصفحة الرئيسية
METAR-TAF:

METAR-TAF

مطار :

Bradshaw Army Air Field

Bradshaw, هاواي, الولايات المتحدة

دائرة عرض: 19-47N, خط طول: 155-33W, ارتفاع: 1887 متر

مراقبة الطقس الحالي

تاريخ ووقت الإصدار 1ساعة و 10 دقيقة قبل الساعة 13:55UTC
رياح هادئة
درجة الحرارة 7°درجة مئوية
الرطوبة 70%
ضغط 1027 hPa
الرؤية: 16.1 كم
سماء صافية

METAR: PHSF 161355Z AUTO 00000KT 10SM CLR 07/02 A3034 RMK AO2 SLP170 T00670016 $

زمن: 05:05 (15:05 UTC)


TAF: مفقودة

أرصاد الطقس والتوقعات من أكثر من 4000 مطار (تقارير الطقس للمطار METAR والتنبؤ بالطقس بالمطارTAF).

المحطات المتاحة هي النقط الصفراء والحمراء على الخريطة.

حرك المؤشر فوق النقطة لمعرفة اسم المحطة.

ثم انقر لمعرفة أرصاد وتوقعات الطقس.

لتغيير الخارطة: اضغط على الأزرار الخضراء مع رمز الصليب الأسود للتكبير. على الزر الأخضر مع شرطة للتصغير، أو على الأسهم الخضراء للخرائط المجاورة.


METAR-TAF: